sensor_id;sensor_type;location;lat;lon;timestamp;P1;durP1;ratioP1;P2;durP2;ratioP2
17361;SDS011;8798;51.938;4.348;2023-03-23T00:00:01;2.83;;;1.60;;
17361;SDS011;8798;51.938;4.348;2023-03-23T00:02:31;3.53;;;1.63;;
17361;SDS011;8798;51.938;4.348;2023-03-23T00:05:00;2.97;;;1.37;;
17361;SDS011;8798;51.938;4.348;2023-03-23T00:07:28;1.73;;;1.30;;
17361;SDS011;8798;51.938;4.348;2023-03-23T00:09:55;1.93;;;1.07;;
17361;SDS011;8798;51.938;4.348;2023-03-23T00:12:22;2.00;;;1.23;;
17361;SDS011;8798;51.938;4.348;2023-03-23T00:14:55;3.93;;;1.60;;
17361;SDS011;8798;51.938;4.348;2023-03-23T00:17:22;2.00;;;1.30;;
17361;SDS011;8798;51.938;4.348;2023-03-23T00:19:49;1.70;;;1.20;;
17361;SDS011;8798;51.938;4.348;2023-03-23T00:22:16;3.80;;;1.50;;
17361;SDS011;8798;51.938;4.348;2023-03-23T00:24:46;4.93;;;1.43;;
17361;SDS011;8798;51.938;4.348;2023-03-23T00:27:13;2.53;;;1.00;;
17361;SDS011;8798;51.938;4.348;2023-03-23T00:29:40;4.47;;;1.30;;
17361;SDS011;8798;51.938;4.348;2023-03-23T00:32:11;3.80;;;1.13;;
17361;SDS011;8798;51.938;4.348;2023-03-23T00:34:39;3.37;;;1.30;;
17361;SDS011;8798;51.938;4.348;2023-03-23T00:37:08;3.70;;;1.20;;
17361;SDS011;8798;51.938;4.348;2023-03-23T00:39:37;5.63;;;1.20;;
17361;SDS011;8798;51.938;4.348;2023-03-23T00:42:11;1.83;;;1.10;;
17361;SDS011;8798;51.938;4.348;2023-03-23T00:44:38;3.60;;;1.40;;
17361;SDS011;8798;51.938;4.348;2023-03-23T00:47:06;2.87;;;1.27;;
17361;SDS011;8798;51.938;4.348;2023-03-23T00:49:35;2.93;;;1.00;;
17361;SDS011;8798;51.938;4.348;2023-03-23T00:52:03;1.53;;;1.00;;
17361;SDS011;8798;51.938;4.348;2023-03-23T00:54:32;2.80;;;1.33;;
17361;SDS011;8798;51.938;4.348;2023-03-23T00:56:59;4.10;;;1.40;;
17361;SDS011;8798;51.938;4.348;2023-03-23T00:59:26;2.87;;;1.03;;
17361;SDS011;8798;51.938;4.348;2023-03-23T01:01:53;2.73;;;1.10;;
17361;SDS011;8798;51.938;4.348;2023-03-23T01:04:20;4.17;;;1.13;;
17361;SDS011;8798;51.938;4.348;2023-03-23T01:06:49;2.30;;;1.13;;
17361;SDS011;8798;51.938;4.348;2023-03-23T01:09:17;1.73;;;1.20;;
17361;SDS011;8798;51.938;4.348;2023-03-23T01:11:46;1.73;;;1.30;;
17361;SDS011;8798;51.938;4.348;2023-03-23T01:14:14;2.97;;;1.00;;
17361;SDS011;8798;51.938;4.348;2023-03-23T01:16:42;2.67;;;1.10;;
17361;SDS011;8798;51.938;4.348;2023-03-23T01:19:09;3.03;;;0.90;;
17361;SDS011;8798;51.938;4.348;2023-03-23T01:21:36;4.43;;;1.23;;
17361;SDS011;8798;51.938;4.348;2023-03-23T01:24:05;2.47;;;1.03;;
17361;SDS011;8798;51.938;4.348;2023-03-23T01:26:33;3.40;;;1.10;;
17361;SDS011;8798;51.938;4.348;2023-03-23T01:28:59;3.50;;;1.60;;
17361;SDS011;8798;51.938;4.348;2023-03-23T01:31:26;2.70;;;1.10;;
17361;SDS011;8798;51.938;4.348;2023-03-23T01:33:53;1.63;;;0.90;;
17361;SDS011;8798;51.938;4.348;2023-03-23T01:36:22;3.90;;;1.33;;
17361;SDS011;8798;51.938;4.348;2023-03-23T01:38:50;1.23;;;1.00;;
17361;SDS011;8798;51.938;4.348;2023-03-23T01:41:18;3.60;;;1.27;;
17361;SDS011;8798;51.938;4.348;2023-03-23T01:43:55;1.83;;;0.90;;
17361;SDS011;8798;51.938;4.348;2023-03-23T01:46:25;1.87;;;0.80;;
17361;SDS011;8798;51.938;4.348;2023-03-23T01:48:52;3.50;;;1.00;;
17361;SDS011;8798;51.938;4.348;2023-03-23T01:51:20;1.57;;;0.80;;
17361;SDS011;8798;51.938;4.348;2023-03-23T01:53:48;2.90;;;1.10;;
17361;SDS011;8798;51.938;4.348;2023-03-23T01:56:24;2.63;;;1.07;;
17361;SDS011;8798;51.938;4.348;2023-03-23T01:58:55;1.30;;;1.13;;
17361;SDS011;8798;51.938;4.348;2023-03-23T02:01:22;2.90;;;1.37;;
17361;SDS011;8798;51.938;4.348;2023-03-23T02:03:51;2.20;;;1.17;;
17361;SDS011;8798;51.938;4.348;2023-03-23T02:06:20;5.03;;;1.13;;
17361;SDS011;8798;51.938;4.348;2023-03-23T02:08:48;2.27;;;0.90;;
17361;SDS011;8798;51.938;4.348;2023-03-23T02:11:17;1.53;;;1.13;;
17361;SDS011;8798;51.938;4.348;2023-03-23T02:13:48;3.53;;;1.20;;
17361;SDS011;8798;51.938;4.348;2023-03-23T02:16:19;1.30;;;1.00;;
17361;SDS011;8798;51.938;4.348;2023-03-23T02:18:57;8.20;;;1.33;;
17361;SDS011;8798;51.938;4.348;2023-03-23T02:24:57;1.50;;;0.93;;
17361;SDS011;8798;51.938;4.348;2023-03-23T02:30:36;2.07;;;1.00;;
17361;SDS011;8798;51.938;4.348;2023-03-23T02:33:17;2.77;;;1.00;;
17361;SDS011;8798;51.938;4.348;2023-03-23T02:35:56;2.60;;;1.20;;
17361;SDS011;8798;51.938;4.348;2023-03-23T02:38:29;2.80;;;1.30;;
17361;SDS011;8798;51.938;4.348;2023-03-23T02:41:00;3.30;;;1.10;;
17361;SDS011;8798;51.938;4.348;2023-03-23T02:43:30;1.70;;;1.00;;
17361;SDS011;8798;51.938;4.348;2023-03-23T02:46:01;4.40;;;1.20;;
17361;SDS011;8798;51.938;4.348;2023-03-23T02:48:33;1.37;;;0.90;;
17361;SDS011;8798;51.938;4.348;2023-03-23T02:51:03;2.67;;;0.97;;
17361;SDS011;8798;51.938;4.348;2023-03-23T02:53:31;1.70;;;1.00;;
17361;SDS011;8798;51.938;4.348;2023-03-23T02:56:01;2.03;;;0.93;;
17361;SDS011;8798;51.938;4.348;2023-03-23T02:58:30;4.93;;;1.10;;
17361;SDS011;8798;51.938;4.348;2023-03-23T03:00:57;1.10;;;0.77;;
17361;SDS011;8798;51.938;4.348;2023-03-23T03:03:26;1.60;;;0.90;;
17361;SDS011;8798;51.938;4.348;2023-03-23T03:05:59;2.10;;;0.90;;
17361;SDS011;8798;51.938;4.348;2023-03-23T03:08:37;3.10;;;1.30;;
17361;SDS011;8798;51.938;4.348;2023-03-23T03:11:12;3.60;;;0.90;;
17361;SDS011;8798;51.938;4.348;2023-03-23T03:13:43;1.70;;;0.87;;
17361;SDS011;8798;51.938;4.348;2023-03-23T03:16:16;3.10;;;1.30;;
17361;SDS011;8798;51.938;4.348;2023-03-23T03:18:50;3.47;;;1.30;;
17361;SDS011;8798;51.938;4.348;2023-03-23T03:21:25;3.50;;;0.90;;
17361;SDS011;8798;51.938;4.348;2023-03-23T03:23:55;1.83;;;1.03;;
17361;SDS011;8798;51.938;4.348;2023-03-23T03:26:26;4.47;;;1.53;;
17361;SDS011;8798;51.938;4.348;2023-03-23T03:28:54;2.83;;;1.20;;
17361;SDS011;8798;51.938;4.348;2023-03-23T03:31:22;6.83;;;1.37;;
17361;SDS011;8798;51.938;4.348;2023-03-23T03:33:52;2.07;;;1.27;;
17361;SDS011;8798;51.938;4.348;2023-03-23T03:36:20;2.07;;;0.93;;
17361;SDS011;8798;51.938;4.348;2023-03-23T03:38:52;3.93;;;1.47;;
17361;SDS011;8798;51.938;4.348;2023-03-23T03:41:19;3.10;;;1.17;;
17361;SDS011;8798;51.938;4.348;2023-03-23T03:43:46;2.67;;;1.20;;
17361;SDS011;8798;51.938;4.348;2023-03-23T03:46:13;2.47;;;1.40;;
17361;SDS011;8798;51.938;4.348;2023-03-23T03:48:39;5.03;;;1.50;;
17361;SDS011;8798;51.938;4.348;2023-03-23T03:51:06;2.80;;;1.00;;
17361;SDS011;8798;51.938;4.348;2023-03-23T03:53:33;3.27;;;1.13;;
17361;SDS011;8798;51.938;4.348;2023-03-23T03:56:02;3.43;;;1.33;;
17361;SDS011;8798;51.938;4.348;2023-03-23T03:58:30;3.80;;;1.23;;
17361;SDS011;8798;51.938;4.348;2023-03-23T04:00:58;1.97;;;1.00;;
17361;SDS011;8798;51.938;4.348;2023-03-23T04:03:25;4.40;;;0.80;;
17361;SDS011;8798;51.938;4.348;2023-03-23T04:05:53;6.40;;;1.90;;
17361;SDS011;8798;51.938;4.348;2023-03-23T04:08:21;4.37;;;1.30;;
17361;SDS011;8798;51.938;4.348;2023-03-23T04:10:48;1.43;;;0.77;;
17361;SDS011;8798;51.938;4.348;2023-03-23T04:13:16;5.83;;;1.10;;
17361;SDS011;8798;51.938;4.348;2023-03-23T04:15:43;4.23;;;1.20;;
17361;SDS011;8798;51.938;4.348;2023-03-23T04:18:11;4.53;;;1.50;;
17361;SDS011;8798;51.938;4.348;2023-03-23T04:20:40;4.00;;;1.50;;
17361;SDS011;8798;51.938;4.348;2023-03-23T04:23:07;5.53;;;1.20;;
17361;SDS011;8798;51.938;4.348;2023-03-23T04:25:34;3.33;;;1.10;;
17361;SDS011;8798;51.938;4.348;2023-03-23T04:28:01;2.87;;;0.93;;
17361;SDS011;8798;51.938;4.348;2023-03-23T04:30:29;8.77;;;1.40;;
17361;SDS011;8798;51.938;4.348;2023-03-23T04:32:57;4.83;;;1.10;;
17361;SDS011;8798;51.938;4.348;2023-03-23T04:35:26;5.20;;;1.40;;
17361;SDS011;8798;51.938;4.348;2023-03-23T04:37:54;3.80;;;1.77;;
17361;SDS011;8798;51.938;4.348;2023-03-23T04:40:22;6.17;;;1.80;;
17361;SDS011;8798;51.938;4.348;2023-03-23T04:42:49;5.90;;;1.90;;
17361;SDS011;8798;51.938;4.348;2023-03-23T04:45:17;6.90;;;2.70;;
17361;SDS011;8798;51.938;4.348;2023-03-23T04:47:48;5.13;;;1.97;;
17361;SDS011;8798;51.938;4.348;2023-03-23T04:50:18;6.47;;;1.77;;
17361;SDS011;8798;51.938;4.348;2023-03-23T04:52:46;6.67;;;1.90;;
17361;SDS011;8798;51.938;4.348;2023-03-23T04:55:14;6.03;;;1.73;;
17361;SDS011;8798;51.938;4.348;2023-03-23T04:57:40;6.57;;;1.53;;
17361;SDS011;8798;51.938;4.348;2023-03-23T05:00:08;6.23;;;1.40;;
17361;SDS011;8798;51.938;4.348;2023-03-23T05:02:39;5.83;;;1.10;;
17361;SDS011;8798;51.938;4.348;2023-03-23T05:05:08;5.77;;;1.80;;
17361;SDS011;8798;51.938;4.348;2023-03-23T05:07:36;7.47;;;2.07;;
17361;SDS011;8798;51.938;4.348;2023-03-23T05:10:03;6.07;;;1.70;;
17361;SDS011;8798;51.938;4.348;2023-03-23T05:12:30;4.83;;;1.83;;
17361;SDS011;8798;51.938;4.348;2023-03-23T05:14:57;5.37;;;1.60;;
17361;SDS011;8798;51.938;4.348;2023-03-23T05:17:24;5.60;;;1.50;;
17361;SDS011;8798;51.938;4.348;2023-03-23T05:19:51;3.53;;;1.17;;
17361;SDS011;8798;51.938;4.348;2023-03-23T05:22:20;4.23;;;1.37;;
17361;SDS011;8798;51.938;4.348;2023-03-23T05:24:47;4.33;;;1.23;;
17361;SDS011;8798;51.938;4.348;2023-03-23T05:27:16;6.87;;;1.50;;
17361;SDS011;8798;51.938;4.348;2023-03-23T05:29:44;6.87;;;1.50;;
17361;SDS011;8798;51.938;4.348;2023-03-23T05:32:13;6.90;;;1.77;;
17361;SDS011;8798;51.938;4.348;2023-03-23T05:34:40;8.07;;;2.00;;
17361;SDS011;8798;51.938;4.348;2023-03-23T05:37:08;7.07;;;1.50;;
17361;SDS011;8798;51.938;4.348;2023-03-23T05:39:38;6.77;;;1.63;;
17361;SDS011;8798;51.938;4.348;2023-03-23T05:42:05;6.33;;;1.60;;
17361;SDS011;8798;51.938;4.348;2023-03-23T05:44:33;6.37;;;1.90;;
17361;SDS011;8798;51.938;4.348;2023-03-23T05:47:00;4.37;;;1.93;;
17361;SDS011;8798;51.938;4.348;2023-03-23T05:49:28;12.07;;;2.93;;
17361;SDS011;8798;51.938;4.348;2023-03-23T05:51:55;5.80;;;2.37;;
17361;SDS011;8798;51.938;4.348;2023-03-23T05:54:22;9.03;;;2.73;;
17361;SDS011;8798;51.938;4.348;2023-03-23T05:56:50;9.37;;;2.63;;
17361;SDS011;8798;51.938;4.348;2023-03-23T05:59:16;9.63;;;3.63;;
17361;SDS011;8798;51.938;4.348;2023-03-23T06:01:43;8.57;;;3.27;;
17361;SDS011;8798;51.938;4.348;2023-03-23T06:04:10;7.43;;;2.70;;
17361;SDS011;8798;51.938;4.348;2023-03-23T06:06:38;7.53;;;2.47;;
17361;SDS011;8798;51.938;4.348;2023-03-23T06:09:06;11.07;;;2.77;;
17361;SDS011;8798;51.938;4.348;2023-03-23T06:11:33;8.37;;;2.60;;
17361;SDS011;8798;51.938;4.348;2023-03-23T06:14:01;6.53;;;1.90;;
17361;SDS011;8798;51.938;4.348;2023-03-23T06:16:28;11.07;;;2.20;;
17361;SDS011;8798;51.938;4.348;2023-03-23T06:18:55;11.93;;;2.73;;
17361;SDS011;8798;51.938;4.348;2023-03-23T06:21:22;7.13;;;1.60;;
17361;SDS011;8798;51.938;4.348;2023-03-23T06:23:49;9.97;;;2.37;;
17361;SDS011;8798;51.938;4.348;2023-03-23T06:26:16;7.83;;;2.30;;
17361;SDS011;8798;51.938;4.348;2023-03-23T06:28:45;4.63;;;1.93;;
17361;SDS011;8798;51.938;4.348;2023-03-23T06:31:14;5.83;;;2.10;;
17361;SDS011;8798;51.938;4.348;2023-03-23T06:33:42;10.03;;;2.20;;
17361;SDS011;8798;51.938;4.348;2023-03-23T06:36:10;10.07;;;2.47;;
17361;SDS011;8798;51.938;4.348;2023-03-23T06:38:37;7.53;;;2.33;;
17361;SDS011;8798;51.938;4.348;2023-03-23T06:41:04;7.23;;;2.30;;
17361;SDS011;8798;51.938;4.348;2023-03-23T06:43:31;8.83;;;2.80;;
17361;SDS011;8798;51.938;4.348;2023-03-23T06:45:59;6.00;;;2.47;;
17361;SDS011;8798;51.938;4.348;2023-03-23T06:48:28;9.27;;;2.93;;
17361;SDS011;8798;51.938;4.348;2023-03-23T06:50:55;10.40;;;3.10;;
17361;SDS011;8798;51.938;4.348;2023-03-23T06:53:22;12.80;;;3.20;;
17361;SDS011;8798;51.938;4.348;2023-03-23T06:55:48;13.43;;;2.77;;
17361;SDS011;8798;51.938;4.348;2023-03-23T06:58:16;6.90;;;1.83;;
17361;SDS011;8798;51.938;4.348;2023-03-23T07:00:43;7.20;;;1.50;;
17361;SDS011;8798;51.938;4.348;2023-03-23T07:03:10;8.07;;;1.70;;
17361;SDS011;8798;51.938;4.348;2023-03-23T07:05:38;6.13;;;1.87;;
17361;SDS011;8798;51.938;4.348;2023-03-23T07:08:05;5.27;;;1.90;;
17361;SDS011;8798;51.938;4.348;2023-03-23T07:10:32;6.47;;;1.40;;
17361;SDS011;8798;51.938;4.348;2023-03-23T07:12:59;6.77;;;1.67;;
17361;SDS011;8798;51.938;4.348;2023-03-23T07:15:27;8.10;;;1.50;;
17361;SDS011;8798;51.938;4.348;2023-03-23T07:17:53;7.37;;;1.30;;
17361;SDS011;8798;51.938;4.348;2023-03-23T07:20:20;4.13;;;1.23;;
17361;SDS011;8798;51.938;4.348;2023-03-23T07:22:48;9.07;;;2.13;;
17361;SDS011;8798;51.938;4.348;2023-03-23T07:25:16;6.33;;;1.30;;
17361;SDS011;8798;51.938;4.348;2023-03-23T07:27:44;6.20;;;1.53;;
17361;SDS011;8798;51.938;4.348;2023-03-23T07:30:11;6.53;;;1.50;;
17361;SDS011;8798;51.938;4.348;2023-03-23T07:32:39;9.73;;;2.10;;
17361;SDS011;8798;51.938;4.348;2023-03-23T07:35:06;6.73;;;1.93;;
17361;SDS011;8798;51.938;4.348;2023-03-23T07:37:34;9.97;;;2.50;;
17361;SDS011;8798;51.938;4.348;2023-03-23T07:40:02;8.33;;;2.50;;
17361;SDS011;8798;51.938;4.348;2023-03-23T07:42:39;7.47;;;2.40;;
17361;SDS011;8798;51.938;4.348;2023-03-23T07:45:07;8.70;;;2.40;;
17361;SDS011;8798;51.938;4.348;2023-03-23T07:47:34;5.20;;;2.23;;
17361;SDS011;8798;51.938;4.348;2023-03-23T07:50:01;8.77;;;2.20;;
17361;SDS011;8798;51.938;4.348;2023-03-23T07:52:28;6.87;;;1.90;;
17361;SDS011;8798;51.938;4.348;2023-03-23T07:54:55;7.90;;;1.43;;
17361;SDS011;8798;51.938;4.348;2023-03-23T07:57:23;7.67;;;1.60;;
17361;SDS011;8798;51.938;4.348;2023-03-23T07:59:50;4.53;;;1.70;;
17361;SDS011;8798;51.938;4.348;2023-03-23T08:02:17;8.03;;;1.60;;
17361;SDS011;8798;51.938;4.348;2023-03-23T08:04:43;8.07;;;1.40;;
17361;SDS011;8798;51.938;4.348;2023-03-23T08:07:12;8.87;;;1.40;;
17361;SDS011;8798;51.938;4.348;2023-03-23T08:09:40;5.17;;;1.60;;
17361;SDS011;8798;51.938;4.348;2023-03-23T08:12:07;6.90;;;1.50;;
17361;SDS011;8798;51.938;4.348;2023-03-23T08:14:35;4.83;;;1.43;;
17361;SDS011;8798;51.938;4.348;2023-03-23T08:17:02;8.07;;;1.67;;
17361;SDS011;8798;51.938;4.348;2023-03-23T08:19:29;4.90;;;1.63;;
17361;SDS011;8798;51.938;4.348;2023-03-23T08:21:55;7.77;;;1.60;;
17361;SDS011;8798;51.938;4.348;2023-03-23T08:24:22;4.03;;;1.43;;
17361;SDS011;8798;51.938;4.348;2023-03-23T08:26:49;6.60;;;1.50;;
17361;SDS011;8798;51.938;4.348;2023-03-23T08:29:15;6.57;;;2.03;;
17361;SDS011;8798;51.938;4.348;2023-03-23T08:31:44;5.77;;;1.60;;
17361;SDS011;8798;51.938;4.348;2023-03-23T08:34:12;7.23;;;1.73;;
17361;SDS011;8798;51.938;4.348;2023-03-23T08:36:38;2.93;;;1.30;;
17361;SDS011;8798;51.938;4.348;2023-03-23T08:39:05;8.00;;;1.70;;
17361;SDS011;8798;51.938;4.348;2023-03-23T08:41:33;7.50;;;1.60;;
17361;SDS011;8798;51.938;4.348;2023-03-23T08:43:59;9.73;;;1.97;;
17361;SDS011;8798;51.938;4.348;2023-03-23T08:46:26;4.40;;;1.60;;
17361;SDS011;8798;51.938;4.348;2023-03-23T08:48:55;8.03;;;2.00;;
17361;SDS011;8798;51.938;4.348;2023-03-23T08:51:22;8.43;;;1.90;;
17361;SDS011;8798;51.938;4.348;2023-03-23T08:53:49;8.93;;;2.13;;
17361;SDS011;8798;51.938;4.348;2023-03-23T08:56:15;9.93;;;2.50;;
17361;SDS011;8798;51.938;4.348;2023-03-23T08:58:42;11.53;;;2.20;;
17361;SDS011;8798;51.938;4.348;2023-03-23T09:01:09;10.20;;;2.00;;
17361;SDS011;8798;51.938;4.348;2023-03-23T09:03:36;12.80;;;2.70;;
17361;SDS011;8798;51.938;4.348;2023-03-23T09:06:07;9.27;;;2.10;;
17361;SDS011;8798;51.938;4.348;2023-03-23T09:08:37;8.17;;;2.17;;
17361;SDS011;8798;51.938;4.348;2023-03-23T09:11:05;8.47;;;2.33;;
17361;SDS011;8798;51.938;4.348;2023-03-23T09:13:33;6.73;;;1.60;;
17361;SDS011;8798;51.938;4.348;2023-03-23T09:16:01;12.20;;;2.60;;
17361;SDS011;8798;51.938;4.348;2023-03-23T09:18:28;5.90;;;1.70;;
17361;SDS011;8798;51.938;4.348;2023-03-23T09:20:56;10.00;;;2.57;;
17361;SDS011;8798;51.938;4.348;2023-03-23T09:23:24;8.90;;;2.20;;
17361;SDS011;8798;51.938;4.348;2023-03-23T09:25:51;10.83;;;2.30;;
17361;SDS011;8798;51.938;4.348;2023-03-23T09:28:18;13.10;;;2.50;;
17361;SDS011;8798;51.938;4.348;2023-03-23T09:30:46;13.40;;;3.13;;
17361;SDS011;8798;51.938;4.348;2023-03-23T09:33:14;12.17;;;2.57;;
17361;SDS011;8798;51.938;4.348;2023-03-23T09:35:40;8.53;;;2.37;;
17361;SDS011;8798;51.938;4.348;2023-03-23T09:38:08;11.67;;;2.60;;
17361;SDS011;8798;51.938;4.348;2023-03-23T09:40:42;7.77;;;2.10;;
17361;SDS011;8798;51.938;4.348;2023-03-23T09:43:20;12.13;;;2.63;;
17361;SDS011;8798;51.938;4.348;2023-03-23T09:46:04;8.60;;;2.17;;
17361;SDS011;8798;51.938;4.348;2023-03-23T09:48:45;16.37;;;3.47;;
17361;SDS011;8798;51.938;4.348;2023-03-23T09:51:19;11.67;;;2.30;;
17361;SDS011;8798;51.938;4.348;2023-03-23T09:53:54;8.37;;;2.10;;
17361;SDS011;8798;51.938;4.348;2023-03-23T09:56:29;12.77;;;2.00;;
17361;SDS011;8798;51.938;4.348;2023-03-23T09:58:58;4.83;;;1.60;;
17361;SDS011;8798;51.938;4.348;2023-03-23T10:01:31;15.60;;;3.17;;
17361;SDS011;8798;51.938;4.348;2023-03-23T10:04:02;7.17;;;2.30;;
17361;SDS011;8798;51.938;4.348;2023-03-23T10:06:33;12.30;;;2.80;;
17361;SDS011;8798;51.938;4.348;2023-03-23T10:09:02;14.50;;;3.30;;
17361;SDS011;8798;51.938;4.348;2023-03-23T10:11:33;9.03;;;2.70;;
17361;SDS011;8798;51.938;4.348;2023-03-23T10:14:22;16.07;;;3.40;;
17361;SDS011;8798;51.938;4.348;2023-03-23T10:17:04;8.60;;;2.60;;
17361;SDS011;8798;51.938;4.348;2023-03-23T10:19:42;14.10;;;2.77;;
17361;SDS011;8798;51.938;4.348;2023-03-23T10:22:14;14.70;;;3.73;;
17361;SDS011;8798;51.938;4.348;2023-03-23T10:24:48;11.33;;;2.50;;
17361;SDS011;8798;51.938;4.348;2023-03-23T10:27:22;12.23;;;2.73;;
17361;SDS011;8798;51.938;4.348;2023-03-23T10:29:56;12.90;;;2.77;;
17361;SDS011;8798;51.938;4.348;2023-03-23T10:32:36;10.50;;;1.77;;
17361;SDS011;8798;51.938;4.348;2023-03-23T10:35:13;7.77;;;1.60;;
17361;SDS011;8798;51.938;4.348;2023-03-23T10:37:44;10.87;;;1.97;;
17361;SDS011;8798;51.938;4.348;2023-03-23T10:40:15;5.57;;;2.13;;
17361;SDS011;8798;51.938;4.348;2023-03-23T10:42:46;7.27;;;2.27;;
17361;SDS011;8798;51.938;4.348;2023-03-23T10:45:15;14.13;;;2.73;;
17361;SDS011;8798;51.938;4.348;2023-03-23T10:47:49;12.60;;;3.00;;
17361;SDS011;8798;51.938;4.348;2023-03-23T10:50:22;8.60;;;2.40;;
17361;SDS011;8798;51.938;4.348;2023-03-23T10:52:52;10.23;;;2.63;;
17361;SDS011;8798;51.938;4.348;2023-03-23T10:55:23;16.93;;;2.87;;
17361;SDS011;8798;51.938;4.348;2023-03-23T10:58:02;9.60;;;1.83;;
17361;SDS011;8798;51.938;4.348;2023-03-23T11:00:30;9.90;;;1.73;;
17361;SDS011;8798;51.938;4.348;2023-03-23T11:02:59;8.67;;;2.33;;
17361;SDS011;8798;51.938;4.348;2023-03-23T11:05:31;12.70;;;2.70;;
17361;SDS011;8798;51.938;4.348;2023-03-23T11:08:01;12.53;;;2.60;;
17361;SDS011;8798;51.938;4.348;2023-03-23T11:10:34;12.43;;;2.30;;
17361;SDS011;8798;51.938;4.348;2023-03-23T11:13:03;11.60;;;2.30;;
17361;SDS011;8798;51.938;4.348;2023-03-23T11:15:37;11.47;;;2.30;;
17361;SDS011;8798;51.938;4.348;2023-03-23T11:18:08;7.40;;;1.97;;
17361;SDS011;8798;51.938;4.348;2023-03-23T11:20:37;7.30;;;1.90;;
17361;SDS011;8798;51.938;4.348;2023-03-23T11:23:10;5.77;;;1.90;;
17361;SDS011;8798;51.938;4.348;2023-03-23T11:25:56;8.40;;;1.43;;
17361;SDS011;8798;51.938;4.348;2023-03-23T11:28:36;7.83;;;1.60;;
17361;SDS011;8798;51.938;4.348;2023-03-23T11:31:08;8.93;;;1.60;;
17361;SDS011;8798;51.938;4.348;2023-03-23T11:33:36;7.50;;;1.73;;
17361;SDS011;8798;51.938;4.348;2023-03-23T11:36:06;9.03;;;1.83;;
17361;SDS011;8798;51.938;4.348;2023-03-23T11:38:34;10.47;;;2.07;;
17361;SDS011;8798;51.938;4.348;2023-03-23T11:41:01;7.87;;;1.80;;
17361;SDS011;8798;51.938;4.348;2023-03-23T11:43:40;8.70;;;1.60;;
17361;SDS011;8798;51.938;4.348;2023-03-23T11:46:12;5.00;;;1.70;;
17361;SDS011;8798;51.938;4.348;2023-03-23T11:48:49;8.23;;;1.70;;
17361;SDS011;8798;51.938;4.348;2023-03-23T11:51:23;5.00;;;1.13;;
17361;SDS011;8798;51.938;4.348;2023-03-23T11:53:56;5.33;;;1.57;;
17361;SDS011;8798;51.938;4.348;2023-03-23T11:56:29;4.80;;;1.33;;
17361;SDS011;8798;51.938;4.348;2023-03-23T11:59:00;4.97;;;1.53;;
17361;SDS011;8798;51.938;4.348;2023-03-23T12:01:36;5.23;;;1.60;;
17361;SDS011;8798;51.938;4.348;2023-03-23T12:04:22;7.87;;;2.00;;
17361;SDS011;8798;51.938;4.348;2023-03-23T12:07:01;6.23;;;1.40;;
17361;SDS011;8798;51.938;4.348;2023-03-23T12:09:47;6.60;;;1.70;;
17361;SDS011;8798;51.938;4.348;2023-03-23T12:12:22;7.00;;;1.30;;
17361;SDS011;8798;51.938;4.348;2023-03-23T12:15:02;6.00;;;1.50;;
17361;SDS011;8798;51.938;4.348;2023-03-23T12:17:42;4.07;;;1.20;;
17361;SDS011;8798;51.938;4.348;2023-03-23T12:20:19;7.03;;;1.33;;
17361;SDS011;8798;51.938;4.348;2023-03-23T12:22:55;9.33;;;2.27;;
17361;SDS011;8798;51.938;4.348;2023-03-23T12:28:25;7.10;;;1.47;;
17361;SDS011;8798;51.938;4.348;2023-03-23T12:31:13;8.87;;;1.80;;
17361;SDS011;8798;51.938;4.348;2023-03-23T12:33:49;3.77;;;1.20;;
17361;SDS011;8798;51.938;4.348;2023-03-23T12:36:24;4.63;;;1.20;;
17361;SDS011;8798;51.938;4.348;2023-03-23T12:39:04;6.37;;;1.17;;
17361;SDS011;8798;51.938;4.348;2023-03-23T12:41:41;5.67;;;1.10;;
17361;SDS011;8798;51.938;4.348;2023-03-23T12:44:16;3.30;;;1.20;;
17361;SDS011;8798;51.938;4.348;2023-03-23T12:46:57;8.13;;;1.70;;
17361;SDS011;8798;51.938;4.348;2023-03-23T12:49:34;8.20;;;1.23;;
17361;SDS011;8798;51.938;4.348;2023-03-23T12:52:10;7.03;;;1.50;;
17361;SDS011;8798;51.938;4.348;2023-03-23T12:54:41;7.57;;;1.57;;
17361;SDS011;8798;51.938;4.348;2023-03-23T12:57:18;5.67;;;1.23;;
17361;SDS011;8798;51.938;4.348;2023-03-23T12:59:53;8.53;;;1.53;;
17361;SDS011;8798;51.938;4.348;2023-03-23T13:02:25;5.57;;;1.23;;
17361;SDS011;8798;51.938;4.348;2023-03-23T13:04:57;7.47;;;1.53;;
17361;SDS011;8798;51.938;4.348;2023-03-23T13:07:30;8.40;;;1.80;;
17361;SDS011;8798;51.938;4.348;2023-03-23T13:10:02;6.27;;;1.57;;
17361;SDS011;8798;51.938;4.348;2023-03-23T13:12:31;7.30;;;1.43;;
17361;SDS011;8798;51.938;4.348;2023-03-23T13:15:06;6.33;;;1.40;;
17361;SDS011;8798;51.938;4.348;2023-03-23T13:17:48;9.40;;;1.80;;
17361;SDS011;8798;51.938;4.348;2023-03-23T13:20:31;5.13;;;1.77;;
17361;SDS011;8798;51.938;4.348;2023-03-23T13:23:04;7.40;;;1.97;;
17361;SDS011;8798;51.938;4.348;2023-03-23T13:28:27;11.40;;;1.77;;
17361;SDS011;8798;51.938;4.348;2023-03-23T13:31:02;8.63;;;1.70;;
17361;SDS011;8798;51.938;4.348;2023-03-23T13:33:38;9.03;;;2.00;;
17361;SDS011;8798;51.938;4.348;2023-03-23T13:36:12;6.07;;;1.77;;
17361;SDS011;8798;51.938;4.348;2023-03-23T13:38:44;10.23;;;1.87;;
17361;SDS011;8798;51.938;4.348;2023-03-23T13:41:13;6.80;;;1.73;;
17361;SDS011;8798;51.938;4.348;2023-03-23T13:43:43;6.87;;;1.30;;
17361;SDS011;8798;51.938;4.348;2023-03-23T13:46:12;6.13;;;1.30;;
17361;SDS011;8798;51.938;4.348;2023-03-23T13:49:02;8.10;;;2.20;;
17361;SDS011;8798;51.938;4.348;2023-03-23T13:51:47;5.40;;;1.83;;
17361;SDS011;8798;51.938;4.348;2023-03-23T13:54:24;8.03;;;1.60;;
17361;SDS011;8798;51.938;4.348;2023-03-23T13:56:57;8.33;;;1.73;;
17361;SDS011;8798;51.938;4.348;2023-03-23T13:59:33;6.13;;;1.50;;
17361;SDS011;8798;51.938;4.348;2023-03-23T14:02:27;6.43;;;1.40;;
17361;SDS011;8798;51.938;4.348;2023-03-23T14:05:23;8.00;;;1.50;;
17361;SDS011;8798;51.938;4.348;2023-03-23T14:07:58;7.93;;;2.13;;
17361;SDS011;8798;51.938;4.348;2023-03-23T14:10:36;8.60;;;1.60;;
17361;SDS011;8798;51.938;4.348;2023-03-23T14:13:10;8.03;;;2.03;;
17361;SDS011;8798;51.938;4.348;2023-03-23T14:15:43;7.40;;;1.93;;
17361;SDS011;8798;51.938;4.348;2023-03-23T14:18:15;8.27;;;2.17;;
17361;SDS011;8798;51.938;4.348;2023-03-23T14:20:45;7.60;;;1.70;;
17361;SDS011;8798;51.938;4.348;2023-03-23T14:23:16;3.97;;;1.23;;
17361;SDS011;8798;51.938;4.348;2023-03-23T14:25:44;12.87;;;2.17;;
17361;SDS011;8798;51.938;4.348;2023-03-23T14:28:21;8.37;;;2.13;;
17361;SDS011;8798;51.938;4.348;2023-03-23T14:30:48;7.77;;;1.63;;
17361;SDS011;8798;51.938;4.348;2023-03-23T14:33:19;9.80;;;1.90;;
17361;SDS011;8798;51.938;4.348;2023-03-23T14:35:48;8.37;;;1.90;;
17361;SDS011;8798;51.938;4.348;2023-03-23T14:38:16;6.37;;;1.97;;
17361;SDS011;8798;51.938;4.348;2023-03-23T14:40:45;8.90;;;1.83;;
17361;SDS011;8798;51.938;4.348;2023-03-23T14:43:14;10.17;;;2.30;;
17361;SDS011;8798;51.938;4.348;2023-03-23T14:45:43;9.10;;;2.37;;
17361;SDS011;8798;51.938;4.348;2023-03-23T14:48:12;7.50;;;2.10;;
17361;SDS011;8798;51.938;4.348;2023-03-23T14:50:42;12.70;;;2.47;;
17361;SDS011;8798;51.938;4.348;2023-03-23T14:53:18;8.17;;;2.00;;
17361;SDS011;8798;51.938;4.348;2023-03-23T14:55:48;6.07;;;1.70;;
17361;SDS011;8798;51.938;4.348;2023-03-23T14:58:16;6.57;;;1.53;;
17361;SDS011;8798;51.938;4.348;2023-03-23T15:00:45;7.97;;;1.93;;
17361;SDS011;8798;51.938;4.348;2023-03-23T15:03:16;5.50;;;1.73;;
17361;SDS011;8798;51.938;4.348;2023-03-23T15:05:45;7.47;;;1.97;;
17361;SDS011;8798;51.938;4.348;2023-03-23T15:08:18;9.33;;;1.93;;
17361;SDS011;8798;51.938;4.348;2023-03-23T15:10:54;7.30;;;2.37;;
17361;SDS011;8798;51.938;4.348;2023-03-23T15:13:25;6.73;;;1.70;;
17361;SDS011;8798;51.938;4.348;2023-03-23T15:15:52;8.40;;;1.93;;
17361;SDS011;8798;51.938;4.348;2023-03-23T15:18:32;8.27;;;2.33;;
17361;SDS011;8798;51.938;4.348;2023-03-23T15:21:07;8.30;;;1.97;;
17361;SDS011;8798;51.938;4.348;2023-03-23T15:23:41;9.77;;;2.63;;
17361;SDS011;8798;51.938;4.348;2023-03-23T15:26:18;8.17;;;2.00;;
17361;SDS011;8798;51.938;4.348;2023-03-23T15:28:58;14.37;;;2.20;;
17361;SDS011;8798;51.938;4.348;2023-03-23T15:31:38;11.63;;;1.90;;